Time,TemperatureF,DewpointF,PressureIn,WindDirection,WindDirectionDegrees,WindSpeedMPH,WindSpeedGustMPH,Humidity,HourlyPrecipIn,Conditions,Clouds,dailyrainin,SoftwareType,DateUTC
2013-06-12 00:06:00,77.6,70.0,29.72,SSW,209,7.0,8.0,77,0.00,,,0.00,weatherlink.com 1.10,2013-06-12 05:06:00,
2013-06-12 00:21:00,77.7,70.0,29.72,North,360,1.0,7.0,76,0.00,,,0.00,weatherlink.com 1.10,2013-06-12 05:21:00,
2013-06-12 00:36:00,77.3,70.0,29.72,SSW,200,0.0,8.0,77,0.00,,,0.00,weatherlink.com 1.10,2013-06-12 05:36:00,
2013-06-12 00:51:00,76.7,69.0,29.72,SSE,163,0.0,7.0,78,0.00,,,0.00,weatherlink.com 1.10,2013-06-12 05:51:00,
2013-06-12 01:06:00,76.8,69.0,29.72,North,5,1.0,7.0,78,0.00,,,0.00,weatherlink.com 1.10,2013-06-12 06:06:00,
2013-06-12 01:21:00,77.0,70.0,29.72,SSE,160,1.0,7.0,78,0.00,,,0.00,weatherlink.com 1.10,2013-06-12 06:21:00,
2013-06-12 01:36:00,77.1,70.0,29.73,ESE,103,0.0,3.0,78,0.00,,,0.00,weatherlink.com 1.10,2013-06-12 06:36:00,
2013-06-12 01:51:00,77.1,70.0,29.72,South,191,1.0,5.0,78,0.00,,,0.00,weatherlink.com 1.10,2013-06-12 06:51:00,
2013-06-12 02:06:00,77.0,70.0,29.72,WNW,302,1.0,5.0,78,0.00,,,0.00,weatherlink.com 1.10,2013-06-12 07:06:00,
2013-06-12 02:21:00,76.8,70.0,29.72,West,278,7.0,8.0,79,0.00,,,0.00,weatherlink.com 1.10,2013-06-12 07:21:00,
2013-06-12 02:36:00,77.1,70.0,29.73,NW,317,2.0,6.0,78,0.00,,,0.00,weatherlink.com 1.10,2013-06-12 07:36:00,
2013-06-12 02:51:00,77.1,70.0,29.72,SW,220,6.0,8.0,78,0.00,,,0.00,weatherlink.com 1.10,2013-06-12 07:51:00,
2013-06-12 03:06:00,76.9,70.0,29.73,SSW,202,5.0,9.0,79,0.00,,,0.00,weatherlink.com 1.10,2013-06-12 08:06:00,
2013-06-12 03:22:00,76.4,69.0,29.72,South,169,0.0,9.0,79,0.00,,,0.00,weatherlink.com 1.10,2013-06-12 08:22:00,
2013-06-12 03:36:00,76.0,69.0,29.72,SE,136,2.0,9.0,80,0.00,,,0.00,weatherlink.com 1.10,2013-06-12 08:36:00,
2013-06-12 03:51:00,75.4,70.0,29.71,South,177,6.0,8.0,82,0.00,,,0.00,weatherlink.com 1.10,2013-06-12 08:51:00,
2013-06-12 04:06:00,75.4,70.0,29.72,SSW,210,5.0,10.0,82,0.00,,,0.00,weatherlink.com 1.10,2013-06-12 09:06:00,
2013-06-12 04:21:00,75.3,70.0,29.73,SSW,207,4.0,6.0,82,0.00,,,0.00,weatherlink.com 1.10,2013-06-12 09:21:00,
2013-06-12 04:36:00,75.0,70.0,29.73,SSW,194,4.0,7.0,83,0.00,,,0.00,weatherlink.com 1.10,2013-06-12 09:36:00,
2013-06-12 04:51:00,74.5,69.0,29.73,NW,313,2.0,5.0,84,0.00,,,0.00,weatherlink.com 1.10,2013-06-12 09:51:00,
2013-06-12 05:06:00,73.8,69.0,29.73,North,355,2.0,4.0,85,0.00,,,0.00,weatherlink.com 1.10,2013-06-12 10:06:00,
2013-06-12 05:21:00,73.7,69.0,29.73,ENE,73,0.0,2.0,86,0.00,,,0.00,weatherlink.com 1.10,2013-06-12 10:21:00,
2013-06-12 05:36:00,73.2,69.0,29.72,SE,130,2.0,4.0,87,0.00,,,0.00,weatherlink.com 1.10,2013-06-12 10:36:00,
2013-06-12 05:51:00,73.1,69.0,29.72,SE,146,1.0,5.0,87,0.00,,,0.00,weatherlink.com 1.10,2013-06-12 10:51:00,
2013-06-12 06:06:00,72.6,69.0,29.74,SSW,213,1.0,4.0,88,0.00,,,0.00,weatherlink.com 1.10,2013-06-12 11:06:00,
2013-06-12 06:21:00,72.3,69.0,29.75,SW,217,1.0,4.0,88,0.00,,,0.00,weatherlink.com 1.10,2013-06-12 11:21:00,
2013-06-12 06:36:00,72.3,69.0,29.75,SSW,213,5.0,7.0,90,0.00,,,0.00,weatherlink.com 1.10,2013-06-12 11:36:00,
2013-06-12 06:51:00,73.4,70.0,29.76,SW,226,6.0,7.0,88,0.00,,,0.00,weatherlink.com 1.10,2013-06-12 11:51:00,
2013-06-12 07:06:00,74.4,70.0,29.75,SW,218,6.0,9.0,86,0.00,,,0.00,weatherlink.com 1.10,2013-06-12 12:06:00,
2013-06-12 07:21:00,74.9,70.0,29.75,SW,223,3.0,8.0,84,0.00,,,0.00,weatherlink.com 1.10,2013-06-12 12:21:00,
2013-06-12 07:36:00,75.1,70.0,29.76,SW,217,5.0,7.0,84,0.00,,,0.00,weatherlink.com 1.10,2013-06-12 12:36:00,
2013-06-12 07:51:00,75.5,70.0,29.76,SW,215,7.0,8.0,83,0.00,,,0.00,weatherlink.com 1.10,2013-06-12 12:51:00,
2013-06-12 08:06:00,75.9,70.0,29.76,SSW,211,7.0,10.0,82,0.00,,,0.00,weatherlink.com 1.10,2013-06-12 13:06:00,
2013-06-12 08:21:00,76.5,70.0,29.75,SW,215,5.0,9.0,81,0.00,,,0.00,weatherlink.com 1.10,2013-06-12 13:21:00,
2013-06-12 08:36:00,77.0,71.0,29.75,SSW,202,4.0,8.0,81,0.00,,,0.00,weatherlink.com 1.10,2013-06-12 13:36:00,
2013-06-12 08:51:00,78.1,71.0,29.75,SW,215,7.0,8.0,79,0.00,,,0.00,weatherlink.com 1.10,2013-06-12 13:51:00,
2013-06-12 09:07:00,78.9,72.0,29.74,SSW,211,4.0,6.0,78,0.00,,,0.00,weatherlink.com 1.10,2013-06-12 14:07:00,
2013-06-12 09:21:00,79.9,73.0,29.74,North,9,3.0,8.0,78,0.00,,,0.00,weatherlink.com 1.10,2013-06-12 14:21:00,
2013-06-12 09:37:00,80.6,72.0,29.74,SSW,202,7.0,12.0,76,0.00,,,0.00,weatherlink.com 1.10,2013-06-12 14:37:00,
2013-06-12 09:52:00,81.6,73.0,29.74,WSW,242,6.0,11.0,74,0.00,,,0.00,weatherlink.com 1.10,2013-06-12 14:52:00,
2013-06-12 10:07:00,81.7,73.0,29.73,SW,229,3.0,11.0,74,0.00,,,0.00,weatherlink.com 1.10,2013-06-12 15:07:00,
2013-06-12 10:22:00,82.3,72.0,29.71,NNW,346,4.0,7.0,72,0.00,,,0.00,weatherlink.com 1.10,2013-06-12 15:22:00,
2013-06-12 10:39:00,83.1,73.0,29.70,SSE,167,0.0,8.0,72,0.00,,,0.00,weatherlink.com 1.10,2013-06-12 15:39:00,
2013-06-12 10:52:00,82.5,72.0,29.63,SSE,163,7.0,18.0,71,0.00,,,0.00,weatherlink.com 1.10,2013-06-12 15:52:00,
2013-06-12 11:07:00,82.4,72.0,29.64,North,5,3.0,16.0,70,0.00,,,0.00,weatherlink.com 1.10,2013-06-12 16:07:00,
2013-06-12 11:22:00,82.7,72.0,29.64,SSW,197,5.0,13.0,70,0.00,,,0.00,weatherlink.com 1.10,2013-06-12 16:22:00,
2013-06-12 11:37:00,83.4,72.0,29.65,SW,214,6.0,19.0,69,0.00,,,0.00,weatherlink.com 1.10,2013-06-12 16:37:00,
2013-06-12 11:52:00,84.2,73.0,29.66,SSW,212,6.0,16.0,68,0.00,,,0.00,weatherlink.com 1.10,2013-06-12 16:52:00,
2013-06-12 12:07:00,85.1,73.0,29.65,SW,217,8.0,19.0,67,0.00,,,0.00,weatherlink.com 1.10,2013-06-12 17:07:00,
2013-06-12 12:22:00,85.7,72.0,29.64,SW,232,7.0,22.0,64,0.00,,,0.00,weatherlink.com 1.10,2013-06-12 17:22:00,
2013-06-12 12:37:00,86.5,72.0,29.63,SSW,207,16.0,19.0,63,0.00,,,0.00,weatherlink.com 1.10,2013-06-12 17:37:00,
2013-06-12 12:52:00,86.9,71.0,29.63,North,5,9.0,21.0,60,0.00,,,0.00,weatherlink.com 1.10,2013-06-12 17:52:00,
2013-06-12 13:07:00,87.2,72.0,29.62,SSE,153,11.0,26.0,61,0.00,,,0.00,weatherlink.com 1.10,2013-06-12 18:07:00,
2013-06-12 13:22:00,88.0,72.0,29.63,North,360,9.0,19.0,59,0.00,,,0.00,weatherlink.com 1.10,2013-06-12 18:22:00,
2013-06-12 13:37:00,88.5,72.0,29.62,SW,219,9.0,17.0,59,0.00,,,0.00,weatherlink.com 1.10,2013-06-12 18:37:00,
2013-06-12 13:52:00,88.9,72.0,29.61,SW,217,16.0,17.0,58,0.00,,,0.00,weatherlink.com 1.10,2013-06-12 18:52:00,
2013-06-12 14:07:00,89.5,72.0,29.61,SW,221,10.0,20.0,57,0.00,,,0.00,weatherlink.com 1.10,2013-06-12 19:07:00,
2013-06-12 14:22:00,90.3,71.0,29.60,SW,219,16.0,23.0,54,0.00,,,0.00,weatherlink.com 1.10,2013-06-12 19:22:00,
2013-06-12 14:37:00,91.2,71.0,29.59,SSE,161,6.0,24.0,52,0.00,,,0.00,weatherlink.com 1.10,2013-06-12 19:37:00,
2013-06-12 14:52:00,91.1,71.0,29.59,WSW,258,9.0,23.0,51,0.00,,,0.00,weatherlink.com 1.10,2013-06-12 19:52:00,
2013-06-12 15:07:00,91.8,70.0,29.58,SW,217,18.0,23.0,49,0.00,,,0.00,weatherlink.com 1.10,2013-06-12 20:07:00,
2013-06-12 15:22:00,92.3,70.0,29.58,WSW,246,10.0,20.0,48,0.00,,,0.00,weatherlink.com 1.10,2013-06-12 20:22:00,
2013-06-12 15:37:00,92.0,71.0,29.58,WSW,244,18.0,25.0,50,0.00,,,0.00,weatherlink.com 1.10,2013-06-12 20:37:00,
2013-06-12 15:52:00,91.3,71.0,29.58,SW,224,12.0,22.0,51,0.00,,,0.00,weatherlink.com 1.10,2013-06-12 20:52:00,
2013-06-12 16:08:00,91.9,71.0,29.57,SSW,208,8.0,23.0,50,0.00,,,0.00,weatherlink.com 1.10,2013-06-12 21:08:00,
2013-06-12 16:22:00,91.7,72.0,29.56,WSW,243,9.0,22.0,52,0.00,,,0.00,weatherlink.com 1.10,2013-06-12 21:22:00,
2013-06-12 16:38:00,90.8,71.0,29.54,SW,223,10.0,22.0,53,0.00,,,0.00,weatherlink.com 1.10,2013-06-12 21:38:00,
2013-06-12 16:53:00,89.7,71.0,29.53,South,190,16.0,28.0,55,0.00,,,0.00,weatherlink.com 1.10,2013-06-12 21:53:00,
2013-06-12 17:08:00,89.9,72.0,29.51,SSW,211,13.0,26.0,56,0.00,,,0.00,weatherlink.com 1.10,2013-06-12 22:08:00,
2013-06-12 17:23:00,90.2,72.0,29.50,SW,236,13.0,25.0,56,0.00,,,0.00,weatherlink.com 1.10,2013-06-12 22:23:00,
2013-06-12 17:38:00,90.7,73.0,29.49,South,181,12.0,29.0,56,0.00,,,0.00,weatherlink.com 1.10,2013-06-12 22:38:00,
2013-06-12 17:55:00,89.8,73.0,29.48,SW,225,20.0,27.0,57,0.00,,,0.00,weatherlink.com 1.10,2013-06-12 22:55:00,
2013-06-12 18:08:00,90.1,73.0,29.48,SW,225,22.0,30.0,57,0.00,,,0.00,weatherlink.com 1.10,2013-06-12 23:08:00,
2013-06-12 18:23:00,90.0,73.0,29.47,SW,230,7.0,28.0,57,0.00,,,0.00,weatherlink.com 1.10,2013-06-12 23:23:00,
2013-06-12 18:38:00,89.8,73.0,29.47,WSW,237,21.0,27.0,58,0.00,,,0.00,weatherlink.com 1.10,2013-06-12 23:38:00,
2013-06-12 18:53:00,89.9,73.0,29.47,SW,220,18.0,19.0,58,0.00,,,0.00,weatherlink.com 1.10,2013-06-12 23:53:00,
2013-06-12 19:08:00,89.2,73.0,29.47,WSW,245,11.0,22.0,59,0.00,,,0.00,weatherlink.com 1.10,2013-06-13 00:08:00,
2013-06-12 19:23:00,89.1,72.0,29.48,West,261,10.0,25.0,58,0.00,,,0.00,weatherlink.com 1.10,2013-06-13 00:23:00,
2013-06-12 19:38:00,89.0,71.0,29.47,WSW,246,19.0,25.0,56,0.00,,,0.00,weatherlink.com 1.10,2013-06-13 00:38:00,
2013-06-12 19:53:00,88.7,71.0,29.47,WSW,250,20.0,23.0,57,0.00,,,0.00,weatherlink.com 1.10,2013-06-13 00:53:00,
2013-06-12 20:08:00,88.3,72.0,29.48,West,266,17.0,24.0,58,0.00,,,0.00,weatherlink.com 1.10,2013-06-13 01:08:00,
2013-06-12 20:23:00,87.6,71.0,29.49,WSW,255,8.0,26.0,58,0.00,,,0.00,weatherlink.com 1.10,2013-06-13 01:23:00,
2013-06-12 20:38:00,87.3,71.0,29.50,WSW,247,17.0,26.0,58,0.00,,,0.00,weatherlink.com 1.10,2013-06-13 01:38:00,
2013-06-12 20:53:00,86.6,71.0,29.50,WSW,257,18.0,22.0,60,0.00,,,0.00,weatherlink.com 1.10,2013-06-13 01:53:00,
2013-06-12 21:08:00,86.3,71.0,29.50,West,261,10.0,23.0,61,0.00,,,0.00,weatherlink.com 1.10,2013-06-13 02:08:00,
2013-06-12 21:23:00,86.0,71.0,29.50,WSW,250,22.0,28.0,61,0.00,,,0.00,weatherlink.com 1.10,2013-06-13 02:23:00,
2013-06-12 21:38:00,85.4,71.0,29.50,WSW,253,11.0,22.0,63,0.00,,,0.00,weatherlink.com 1.10,2013-06-13 02:38:00,
2013-06-12 21:53:00,85.1,71.0,29.50,WSW,254,7.0,18.0,63,0.00,,,0.00,weatherlink.com 1.10,2013-06-13 02:53:00,
2013-06-12 22:08:00,84.6,71.0,29.51,West,265,12.0,19.0,64,0.00,,,0.00,weatherlink.com 1.10,2013-06-13 03:08:00,
2013-06-12 22:23:00,84.4,71.0,29.51,WSW,250,11.0,22.0,65,0.00,,,0.00,weatherlink.com 1.10,2013-06-13 03:23:00,
2013-06-12 22:38:00,84.2,71.0,29.51,WSW,241,17.0,21.0,65,0.00,,,0.00,weatherlink.com 1.10,2013-06-13 03:38:00,
2013-06-12 22:57:00,83.9,71.0,29.52,WSW,256,18.0,26.0,66,0.00,,,0.00,weatherlink.com 1.10,2013-06-13 03:57:00,
2013-06-12 23:08:00,83.5,71.0,29.53,WSW,255,9.0,28.0,67,0.00,,,0.00,weatherlink.com 1.10,2013-06-13 04:08:00,
2013-06-12 23:23:00,82.3,72.0,29.54,West,268,13.0,26.0,70,0.00,,,0.00,weatherlink.com 1.10,2013-06-13 04:23:00,
2013-06-12 23:38:00,81.1,71.0,29.54,West,279,7.0,21.0,72,0.00,,,0.00,weatherlink.com 1.10,2013-06-13 04:38:00,
2013-06-12 23:53:00,80.3,71.0,29.55,WNW,296,9.0,22.0,73,0.00,,,0.00,weatherlink.com 1.10,2013-06-13 04:53:00,